createdAt,value
2022-09-10T00:01:27.517Z,98.58
2022-09-10T00:03:56.509Z,98.59
2022-09-10T00:06:27.959Z,99.22
2022-09-10T00:08:57.915Z,99.58
2022-09-10T00:11:31.698Z,100.00
2022-09-10T00:14:00.802Z,100.00
2022-09-10T00:16:29.948Z,100.00
2022-09-10T00:18:57.611Z,100.00
2022-09-10T00:21:25.179Z,100.00
2022-09-10T00:23:52.856Z,100.00
2022-09-10T00:26:24.433Z,100.00
2022-09-10T00:28:53.423Z,98.98
2022-09-10T00:31:22.925Z,95.59
2022-09-10T00:33:51.000Z,93.61
2022-09-10T00:36:21.759Z,94.01
2022-09-10T00:38:50.472Z,96.66
2022-09-10T00:41:19.823Z,100.00
2022-09-10T00:43:55.186Z,100.00
2022-09-10T00:46:34.912Z,100.00
2022-09-10T00:49:09.965Z,99.93
2022-09-10T00:51:37.876Z,98.72
2022-09-10T00:54:05.725Z,100.00
2022-09-10T00:56:34.767Z,100.00
2022-09-10T00:59:04.580Z,95.38
2022-09-10T01:01:33.720Z,94.73
2022-09-10T01:04:03.599Z,95.75
2022-09-10T01:06:31.039Z,96.62
2022-09-10T01:09:01.068Z,100.00
2022-09-10T01:11:34.569Z,100.00
2022-09-10T01:14:22.188Z,100.00
2022-09-10T01:17:12.663Z,100.00
2022-09-10T01:19:59.190Z,100.00
2022-09-10T01:22:57.593Z,100.00
2022-09-10T01:26:05.102Z,99.84
2022-09-10T01:29:35.720Z,95.19
2022-09-10T01:32:17.301Z,92.00
2022-09-10T01:34:56.467Z,92.09
2022-09-10T01:37:28.572Z,98.17
2022-09-10T01:39:56.873Z,100.00
2022-09-10T01:42:28.582Z,100.00
2022-09-10T01:44:58.043Z,100.00
2022-09-10T01:47:59.580Z,100.00
2022-09-10T01:50:33.054Z,100.00
2022-09-10T01:53:20.763Z,98.10
2022-09-10T01:56:04.815Z,96.02
2022-09-10T01:58:40.700Z,89.06
2022-09-10T02:01:26.615Z,90.93
2022-09-10T02:03:59.733Z,92.41
2022-09-10T02:06:31.334Z,100.00
2022-09-10T02:09:01.621Z,97.63
2022-09-10T02:11:29.360Z,96.67
2022-09-10T02:14:03.308Z,99.70
2022-09-10T02:16:59.010Z,99.75
2022-09-10T02:19:27.337Z,99.42
2022-09-10T02:21:57.060Z,97.48
2022-09-10T02:24:25.121Z,96.77
2022-09-10T02:26:52.682Z,99.33
2022-09-10T02:29:20.175Z,99.52
2022-09-10T02:31:47.629Z,98.78
2022-09-10T02:34:18.264Z,97.63
2022-09-10T02:36:47.631Z,96.41
2022-09-10T02:39:15.489Z,97.55
2022-09-10T02:41:42.766Z,99.38
2022-09-10T02:44:10.181Z,99.54
2022-09-10T02:46:38.266Z,100.00
2022-09-10T02:49:06.138Z,97.51
2022-09-10T02:51:38.156Z,95.68
2022-09-10T02:54:07.530Z,98.51
2022-09-10T02:56:35.438Z,98.98
2022-09-10T02:59:03.974Z,99.27
2022-09-10T03:01:35.184Z,100.00
2022-09-10T03:04:05.702Z,100.00
2022-09-10T03:06:33.054Z,100.00
2022-09-10T03:09:02.176Z,100.00
2022-09-10T03:11:29.505Z,100.00
2022-09-10T03:13:59.302Z,98.42
2022-09-10T03:16:27.370Z,97.71
2022-09-10T03:18:55.909Z,99.74
2022-09-10T03:21:27.694Z,100.00
2022-09-10T03:23:57.811Z,100.00
2022-09-10T03:26:29.242Z,100.00
2022-09-10T03:28:56.483Z,100.00
2022-09-10T03:31:27.998Z,100.00
2022-09-10T03:33:55.395Z,100.00
2022-09-10T03:36:22.908Z,100.00
2022-09-10T03:38:50.696Z,100.00
2022-09-10T03:41:17.999Z,100.00
2022-09-10T03:43:46.162Z,100.00
2022-09-10T03:46:13.422Z,100.00
2022-09-10T03:48:44.660Z,100.00
2022-09-10T03:51:12.106Z,100.00
2022-09-10T03:53:40.835Z,100.00
2022-09-10T03:56:11.145Z,100.00
2022-09-10T03:58:39.596Z,100.00
2022-09-10T04:01:08.933Z,100.00
2022-09-10T04:03:38.964Z,100.00
2022-09-10T04:06:13.024Z,100.00
2022-09-10T04:08:40.860Z,100.00
2022-09-10T04:11:10.834Z,100.00
2022-09-10T04:13:38.263Z,100.00
2022-09-10T04:16:06.106Z,100.00
2022-09-10T04:18:34.286Z,100.00
2022-09-10T04:21:03.667Z,100.00
2022-09-10T04:23:33.742Z,100.00
2022-09-10T04:26:12.279Z,100.00
2022-09-10T04:28:40.669Z,100.00
2022-09-10T04:31:08.405Z,100.00
2022-09-10T04:33:36.131Z,100.00
2022-09-10T04:36:06.977Z,100.00
2022-09-10T04:38:42.214Z,100.00
2022-09-10T04:41:12.154Z,100.00
2022-09-10T04:43:40.774Z,100.00
2022-09-10T04:46:08.115Z,100.00
2022-09-10T04:48:39.452Z,100.00
2022-09-10T04:51:17.176Z,100.00
2022-09-10T04:53:50.279Z,100.00
2022-09-10T04:56:18.479Z,100.00
2022-09-10T04:58:47.021Z,100.00
2022-09-10T05:01:17.084Z,100.00
2022-09-10T05:03:45.837Z,100.00
2022-09-10T05:06:13.659Z,100.00
2022-09-10T05:08:41.294Z,100.00
2022-09-10T05:11:09.864Z,100.00
2022-09-10T05:13:37.231Z,100.00
2022-09-10T05:16:05.147Z,100.00
2022-09-10T05:18:34.216Z,100.00
2022-09-10T05:21:01.855Z,100.00
2022-09-10T05:23:29.565Z,100.00
2022-09-10T05:25:58.754Z,100.00
2022-09-10T05:28:27.042Z,100.00
2022-09-10T05:30:54.524Z,100.00
2022-09-10T05:33:24.531Z,100.00
2022-09-10T05:35:51.972Z,100.00
2022-09-10T05:38:20.678Z,100.00
2022-09-10T05:40:49.041Z,100.00
2022-09-10T05:43:16.547Z,100.00
2022-09-10T05:45:45.542Z,100.00
2022-09-10T05:48:13.362Z,100.00
2022-09-10T05:50:41.409Z,100.00
2022-09-10T05:53:09.942Z,100.00
2022-09-10T05:55:38.111Z,100.00
2022-09-10T05:58:08.170Z,98.54
2022-09-10T06:00:37.902Z,93.02
2022-09-10T06:03:06.075Z,90.26
2022-09-10T06:05:41.645Z,88.54
2022-09-10T06:08:09.305Z,85.14
2022-09-10T06:10:41.503Z,82.12
2022-09-10T06:13:11.359Z,79.21
2022-09-10T06:15:39.015Z,82.31
2022-09-10T06:18:07.635Z,84.54
2022-09-10T06:20:34.950Z,79.43
2022-09-10T06:23:02.718Z,73.06
2022-09-10T06:25:31.182Z,70.62
2022-09-10T06:28:00.720Z,70.59
2022-09-10T06:30:28.315Z,68.80
2022-09-10T06:32:56.699Z,64.64
2022-09-10T06:35:25.437Z,64.24
2022-09-10T06:37:54.620Z,58.63
2022-09-10T06:40:22.283Z,52.94
2022-09-10T06:42:50.398Z,52.44
2022-09-10T06:45:20.284Z,52.00
2022-09-10T06:50:57.950Z,48.81
2022-09-10T06:53:33.373Z,47.31
2022-09-10T06:56:02.713Z,47.84
2022-09-10T06:58:35.418Z,44.70
2022-09-10T07:01:14.323Z,45.56
2022-09-10T07:03:45.667Z,45.01
2022-09-10T07:06:16.875Z,44.15
2022-09-10T07:08:47.381Z,46.82
2022-09-10T07:11:15.990Z,45.58
2022-09-10T07:13:50.450Z,46.21
2022-09-10T07:16:19.569Z,46.11
2022-09-10T07:18:51.688Z,46.41
2022-09-10T07:21:23.137Z,44.84
2022-09-10T07:23:58.645Z,43.15
2022-09-10T07:26:26.031Z,41.35
2022-09-10T07:28:55.156Z,41.27
2022-09-10T07:31:29.727Z,39.81
2022-09-10T07:34:03.675Z,40.09
2022-09-10T07:36:31.894Z,39.45
2022-09-10T07:39:01.936Z,40.24
2022-09-10T07:41:34.571Z,39.65
2022-09-10T07:44:03.899Z,40.01
2022-09-10T07:46:37.974Z,40.30
2022-09-10T07:49:09.466Z,40.21
2022-09-10T07:51:39.037Z,37.50
2022-09-10T07:54:07.006Z,36.83
2022-09-10T07:56:38.750Z,38.06
2022-09-10T07:59:08.501Z,36.25
2022-09-10T08:01:41.523Z,37.01
2022-09-10T08:04:09.775Z,35.51
2022-09-10T08:06:39.330Z,37.52
2022-09-10T08:09:09.461Z,36.73
2022-09-10T08:11:42.195Z,35.67
2022-09-10T08:14:13.714Z,35.65
2022-09-10T08:16:44.594Z,36.35
2022-09-10T08:19:18.200Z,34.52
2022-09-10T08:21:47.146Z,34.93
2022-09-10T08:24:19.496Z,36.40
2022-09-10T08:26:50.349Z,35.73
2022-09-10T08:29:19.472Z,34.96
2022-09-10T08:31:50.546Z,34.22
2022-09-10T08:34:27.042Z,33.46
2022-09-10T08:37:03.566Z,33.86
2022-09-10T08:39:35.158Z,33.32
2022-09-10T08:42:14.521Z,32.79
2022-09-10T08:44:49.821Z,31.89
2022-09-10T08:47:42.250Z,33.14
2022-09-10T08:50:18.818Z,32.54
2022-09-10T08:52:59.482Z,31.64
2022-09-10T08:55:32.543Z,32.72
2022-09-10T08:58:29.734Z,30.91
2022-09-10T09:01:01.972Z,32.77
2022-09-10T09:03:37.265Z,34.31
2022-09-10T09:06:10.796Z,33.31
2022-09-10T09:08:48.422Z,33.76
2022-09-10T09:11:20.127Z,31.12
2022-09-10T09:14:15.576Z,31.32
2022-09-10T09:17:12.044Z,30.45
2022-09-10T09:19:39.372Z,30.12
2022-09-10T09:22:18.860Z,32.16
2022-09-10T09:25:00.737Z,31.49
2022-09-10T09:27:32.261Z,30.47
2022-09-10T09:30:04.125Z,31.01
2022-09-10T09:32:39.905Z,29.48
2022-09-10T09:35:23.786Z,30.50
2022-09-10T09:37:59.572Z,30.99
2022-09-10T09:40:45.112Z,31.22
2022-09-10T09:43:36.375Z,32.04
2022-09-10T09:46:11.378Z,30.72
2022-09-10T09:48:41.327Z,31.26
2022-09-10T09:51:21.047Z,31.40
2022-09-10T09:54:00.962Z,30.65
2022-09-10T09:56:42.811Z,30.13
2022-09-10T09:59:29.858Z,30.88
2022-09-10T10:02:14.336Z,29.91
2022-09-10T10:05:03.372Z,33.02
2022-09-10T10:07:33.997Z,30.51
2022-09-10T10:10:03.131Z,31.42
2022-09-10T10:12:33.778Z,31.72
2022-09-10T10:15:02.877Z,31.97
2022-09-10T10:17:37.346Z,30.31
2022-09-10T10:20:08.952Z,27.36
2022-09-10T10:22:38.515Z,28.36
2022-09-10T10:25:42.457Z,29.75
2022-09-10T10:28:28.648Z,31.16
2022-09-10T10:30:59.949Z,28.48
2022-09-10T10:33:31.364Z,29.97
2022-09-10T10:35:59.879Z,30.39
2022-09-10T10:38:33.980Z,28.15
2022-09-10T10:41:09.635Z,27.72
2022-09-10T10:43:39.825Z,29.22
2022-09-10T10:46:21.955Z,30.55
2022-09-10T10:49:04.671Z,28.22
2022-09-10T10:52:03.752Z,29.69
2022-09-10T10:54:37.502Z,29.14
2022-09-10T10:57:33.371Z,32.17
2022-09-10T11:00:17.505Z,33.90
2022-09-10T11:02:54.592Z,29.73
2022-09-10T11:05:32.366Z,31.08
2022-09-10T11:08:06.618Z,32.92
2022-09-10T11:10:45.260Z,31.27
2022-09-10T11:13:25.677Z,32.81
2022-09-10T11:16:16.858Z,34.04
2022-09-10T11:18:52.082Z,36.25
2022-09-10T11:21:29.904Z,33.97
2022-09-10T11:24:16.836Z,33.61
2022-09-10T11:26:51.160Z,33.57
2022-09-10T11:29:42.865Z,33.38
2022-09-10T11:32:10.055Z,33.31
2022-09-10T11:34:37.358Z,33.54
2022-09-10T11:37:29.378Z,31.95
2022-09-10T11:40:02.605Z,31.72
2022-09-10T11:42:56.267Z,30.12
2022-09-10T11:45:36.208Z,31.87
2022-09-10T11:48:23.452Z,31.64
2022-09-10T11:50:53.565Z,33.02
2022-09-10T11:53:23.417Z,33.71
2022-09-10T11:55:50.706Z,33.33
2022-09-10T11:58:49.133Z,33.58
2022-09-10T12:01:22.592Z,33.76
2022-09-10T12:04:12.172Z,32.85
2022-09-10T12:06:39.538Z,32.08
2022-09-10T12:09:20.568Z,32.33
2022-09-10T12:12:00.288Z,31.76
2022-09-10T12:14:28.092Z,30.48
2022-09-10T12:17:03.346Z,31.80
2022-09-10T12:19:46.003Z,32.39
2022-09-10T12:22:21.683Z,32.25
2022-09-10T12:24:59.300Z,32.92
2022-09-10T12:27:49.102Z,32.53
2022-09-10T12:30:39.503Z,31.64
2022-09-10T12:33:12.876Z,31.40
2022-09-10T12:35:47.163Z,31.50
2022-09-10T12:38:52.634Z,33.43
2022-09-10T12:41:22.954Z,32.85
2022-09-10T12:43:53.888Z,32.19
2022-09-10T12:46:25.561Z,31.39
2022-09-10T12:48:56.168Z,31.96
2022-09-10T12:52:00.211Z,33.21
2022-09-10T12:54:33.488Z,32.01
2022-09-10T12:57:20.516Z,32.42
2022-09-10T12:59:58.930Z,32.29
2022-09-10T13:02:29.320Z,31.85
2022-09-10T13:05:03.260Z,32.38
2022-09-10T13:07:40.298Z,34.01
2022-09-10T13:10:21.635Z,32.87
2022-09-10T13:12:56.752Z,33.02
2022-09-10T13:15:27.760Z,34.83
2022-09-10T13:17:55.033Z,33.38
2022-09-10T13:20:22.259Z,32.49
2022-09-10T13:23:06.723Z,32.86
2022-09-10T13:25:40.276Z,32.84
2022-09-10T13:28:39.497Z,33.68
2022-09-10T13:31:14.070Z,32.83
2022-09-10T13:33:58.906Z,32.92
2022-09-10T13:36:41.745Z,33.15
2022-09-10T13:39:15.339Z,34.48
2022-09-10T13:42:03.366Z,35.94
2022-09-10T13:44:49.337Z,33.13
2022-09-10T13:47:20.966Z,33.80
2022-09-10T13:49:57.402Z,34.35
2022-09-10T13:52:29.425Z,34.12
2022-09-10T13:54:59.380Z,34.61
2022-09-10T13:57:42.209Z,33.37
2022-09-10T14:00:12.738Z,34.06
2022-09-10T14:03:00.731Z,32.90
2022-09-10T14:05:44.652Z,33.24
2022-09-10T14:08:13.610Z,31.85
2022-09-10T14:11:07.348Z,32.86
2022-09-10T14:13:41.640Z,33.18
2022-09-10T14:16:13.931Z,33.59
2022-09-10T14:18:48.948Z,34.31
2022-09-10T14:21:17.704Z,36.11
2022-09-10T14:23:49.235Z,35.17
2022-09-10T14:26:26.339Z,34.58
2022-09-10T14:28:59.745Z,35.18
2022-09-10T14:31:30.297Z,34.17
2022-09-10T14:33:59.511Z,33.69
2022-09-10T14:36:30.035Z,34.77
2022-09-10T14:39:20.079Z,34.25
2022-09-10T14:41:47.889Z,34.04
2022-09-10T14:44:22.239Z,35.54
2022-09-10T14:47:07.814Z,34.66
2022-09-10T14:49:38.274Z,34.19
2022-09-10T14:52:06.481Z,35.15
2022-09-10T14:54:35.007Z,35.30
2022-09-10T14:57:13.769Z,35.62
2022-09-10T14:59:46.347Z,35.67
2022-09-10T15:02:21.672Z,36.87
2022-09-10T15:04:49.486Z,36.11
2022-09-10T15:07:17.163Z,36.12
2022-09-10T15:09:44.909Z,36.31
2022-09-10T15:12:24.236Z,36.08
2022-09-10T15:14:52.253Z,36.93
2022-09-10T15:17:19.764Z,37.99
2022-09-10T15:19:48.467Z,36.11
2022-09-10T15:22:24.826Z,35.72
2022-09-10T15:25:09.245Z,36.42
2022-09-10T15:27:37.623Z,37.02
2022-09-10T15:30:05.801Z,37.00
2022-09-10T15:32:33.045Z,37.26
2022-09-10T15:35:01.117Z,36.75
2022-09-10T15:37:28.511Z,37.14
2022-09-10T15:39:57.503Z,37.95
2022-09-10T15:42:24.982Z,38.13
2022-09-10T15:44:52.327Z,38.70
2022-09-10T15:47:19.662Z,38.34
2022-09-10T15:49:47.164Z,39.38
2022-09-10T15:52:14.558Z,39.66
2022-09-10T15:54:43.335Z,38.84
2022-09-10T15:57:10.683Z,39.76
2022-09-10T15:59:37.970Z,39.68
2022-09-10T16:02:06.480Z,40.41
2022-09-10T16:04:36.235Z,39.39
2022-09-10T16:07:05.075Z,39.70
2022-09-10T16:09:32.815Z,39.77
2022-09-10T16:12:00.098Z,40.40
2022-09-10T16:14:32.084Z,40.36
2022-09-10T16:16:59.650Z,40.00
2022-09-10T16:19:29.760Z,42.43
2022-09-10T16:21:57.258Z,39.71
2022-09-10T16:24:24.570Z,38.86
2022-09-10T16:26:51.831Z,40.66
2022-09-10T16:29:19.744Z,40.86
2022-09-10T16:31:48.075Z,42.57
2022-09-10T16:34:18.380Z,41.39
2022-09-10T16:36:48.834Z,40.43
2022-09-10T16:39:17.781Z,40.55
2022-09-10T16:41:47.729Z,41.74
2022-09-10T16:44:16.541Z,43.32
2022-09-10T16:46:44.861Z,41.55
2022-09-10T16:49:13.948Z,42.08
2022-09-10T16:51:42.957Z,42.40
2022-09-10T16:54:11.581Z,44.08
2022-09-10T16:56:45.072Z,44.54
2022-09-10T16:59:16.024Z,45.37
2022-09-10T17:01:45.030Z,45.55
2022-09-10T17:04:26.080Z,44.74
2022-09-10T17:06:57.486Z,44.74
2022-09-10T17:09:25.318Z,44.67
2022-09-10T17:11:53.250Z,45.10
2022-09-10T17:14:20.910Z,45.07
2022-09-10T17:16:48.387Z,45.90
2022-09-10T17:19:18.558Z,44.66
2022-09-10T17:21:51.254Z,45.03
2022-09-10T17:24:22.956Z,44.82
2022-09-10T17:26:51.555Z,45.58
2022-09-10T17:29:20.871Z,44.88
2022-09-10T17:31:49.114Z,45.38
2022-09-10T17:34:17.261Z,45.66
2022-09-10T17:36:48.098Z,46.33
2022-09-10T17:39:16.048Z,46.33
2022-09-10T17:41:44.047Z,47.55
2022-09-10T17:44:13.479Z,49.54
2022-09-10T17:46:42.843Z,50.22
2022-09-10T17:49:13.566Z,49.02
2022-09-10T17:51:42.207Z,49.69
2022-09-10T17:54:10.478Z,49.07
2022-09-10T17:56:42.041Z,48.63
2022-09-10T17:59:12.576Z,48.82
2022-09-10T18:01:40.568Z,48.82
2022-09-10T18:04:12.646Z,49.42
2022-09-10T18:06:40.996Z,49.52
2022-09-10T18:09:08.917Z,49.17
2022-09-10T18:11:39.542Z,49.09
2022-09-10T18:14:08.356Z,49.41
2022-09-10T18:16:36.599Z,49.98
2022-09-10T18:19:13.750Z,50.27
2022-09-10T18:21:43.735Z,50.06
2022-09-10T18:24:22.813Z,52.86
2022-09-10T18:26:52.210Z,52.82
2022-09-10T18:29:22.690Z,53.75
2022-09-10T18:31:52.897Z,55.14
2022-09-10T18:34:23.862Z,55.23
2022-09-10T18:36:57.624Z,56.22
2022-09-10T18:39:27.346Z,56.43
2022-09-10T18:41:55.464Z,56.75
2022-09-10T18:44:28.440Z,55.70
2022-09-10T18:46:56.622Z,56.42
2022-09-10T18:49:24.804Z,56.51
2022-09-10T18:51:53.798Z,56.29
2022-09-10T18:54:23.254Z,56.02
2022-09-10T18:56:51.413Z,56.23
2022-09-10T18:59:20.442Z,56.54
2022-09-10T19:01:51.028Z,56.35
2022-09-10T19:04:23.736Z,56.54
2022-09-10T19:06:51.580Z,58.18
2022-09-10T19:09:24.137Z,57.62
2022-09-10T19:11:53.224Z,57.65
2022-09-10T19:14:26.702Z,57.16
2022-09-10T19:16:56.384Z,56.44
2022-09-10T19:19:26.077Z,56.71
2022-09-10T19:21:56.996Z,57.79
2022-09-10T19:24:37.767Z,58.53
2022-09-10T19:27:11.836Z,59.50
2022-09-10T19:29:42.685Z,59.80
2022-09-10T19:32:11.503Z,60.11
2022-09-10T19:34:39.187Z,60.75
2022-09-10T19:37:07.283Z,59.64
2022-09-10T19:39:34.849Z,57.64
2022-09-10T19:42:02.280Z,57.33
2022-09-10T19:44:29.731Z,58.19
2022-09-10T19:46:57.125Z,57.36
2022-09-10T19:49:24.598Z,57.47
2022-09-10T19:51:51.963Z,58.07
2022-09-10T19:54:19.794Z,56.43
2022-09-10T19:56:47.604Z,57.32
2022-09-10T19:59:16.163Z,58.08
2022-09-10T20:01:46.149Z,58.16
2022-09-10T20:04:14.531Z,58.06
2022-09-10T20:06:46.299Z,57.84
2022-09-10T20:09:13.698Z,57.79
2022-09-10T20:11:41.190Z,58.35
2022-09-10T20:14:13.414Z,57.49
2022-09-10T20:16:43.176Z,57.39
2022-09-10T20:19:18.068Z,57.77
2022-09-10T20:21:47.730Z,56.52
2022-09-10T20:24:15.896Z,56.35
2022-09-10T20:26:43.912Z,55.99
2022-09-10T20:29:13.774Z,56.76
2022-09-10T20:31:42.298Z,55.67
2022-09-10T20:34:15.485Z,55.86
2022-09-10T20:36:43.212Z,55.64
2022-09-10T20:39:16.298Z,55.80
2022-09-10T20:41:44.251Z,54.81
2022-09-10T20:44:14.189Z,54.95
2022-09-10T20:46:42.345Z,54.65
2022-09-10T20:49:11.714Z,55.57
2022-09-10T20:51:40.643Z,56.01
2022-09-10T20:54:11.688Z,55.92
2022-09-10T20:56:39.403Z,55.79
2022-09-10T20:59:06.874Z,55.54
2022-09-10T21:01:34.771Z,55.59
2022-09-10T21:04:03.194Z,56.55
2022-09-10T21:06:32.584Z,56.68
2022-09-10T21:09:01.319Z,56.51
2022-09-10T21:11:31.324Z,56.78
2022-09-10T21:14:01.902Z,57.42
2022-09-10T21:16:35.289Z,56.32
2022-09-10T21:19:09.190Z,56.08
2022-09-10T21:21:39.408Z,57.08
2022-09-10T21:24:10.424Z,56.98
2022-09-10T21:26:39.508Z,58.50
2022-09-10T21:29:10.867Z,57.19
2022-09-10T21:31:38.511Z,56.03
2022-09-10T21:34:06.506Z,55.97
2022-09-10T21:36:36.755Z,56.38
2022-09-10T21:39:07.713Z,58.73
2022-09-10T21:41:41.196Z,58.18
2022-09-10T21:44:14.282Z,59.27
2022-09-10T21:46:43.551Z,59.35
2022-09-10T21:49:11.904Z,59.60
2022-09-10T21:51:41.388Z,60.19
2022-09-10T21:54:15.354Z,59.73
2022-09-10T21:56:42.871Z,58.87
2022-09-10T21:59:12.067Z,58.31
2022-09-10T22:01:42.178Z,58.59
2022-09-10T22:04:09.875Z,58.43
2022-09-10T22:06:37.522Z,57.57
2022-09-10T22:09:10.923Z,57.26
2022-09-10T22:11:42.001Z,57.34
2022-09-10T22:14:18.044Z,58.33
2022-09-10T22:16:46.142Z,58.20
2022-09-10T22:19:16.067Z,60.10
2022-09-10T22:21:44.023Z,59.41
2022-09-10T22:24:13.631Z,58.86
2022-09-10T22:26:43.350Z,58.69
2022-09-10T22:29:12.558Z,57.93
2022-09-10T22:31:39.993Z,57.79
2022-09-10T22:34:13.513Z,57.81
2022-09-10T22:36:43.859Z,57.78
2022-09-10T22:39:19.304Z,58.03
2022-09-10T22:41:48.686Z,58.99
2022-09-10T22:44:17.908Z,59.21
2022-09-10T22:46:45.614Z,60.71
2022-09-10T22:49:16.543Z,60.91
2022-09-10T22:51:44.559Z,61.13
2022-09-10T22:54:11.936Z,60.21
2022-09-10T22:56:39.945Z,60.14
2022-09-10T22:59:11.391Z,60.18
2022-09-10T23:01:39.065Z,59.14
2022-09-10T23:04:08.182Z,58.16
2022-09-10T23:06:38.521Z,58.00
2022-09-10T23:09:15.533Z,59.04
2022-09-10T23:11:44.620Z,59.14
2022-09-10T23:14:15.675Z,59.26
2022-09-10T23:16:44.933Z,58.94
2022-09-10T23:19:18.244Z,60.17
2022-09-10T23:21:48.761Z,59.13
2022-09-10T23:24:19.250Z,60.28
2022-09-10T23:26:46.547Z,61.87
2022-09-10T23:29:19.236Z,60.93
2022-09-10T23:31:47.669Z,60.23
2022-09-10T23:34:18.113Z,59.94
2022-09-10T23:36:48.120Z,59.75
2022-09-10T23:39:21.369Z,60.34
2022-09-10T23:41:50.580Z,62.11
2022-09-10T23:44:18.069Z,60.84
2022-09-10T23:46:45.659Z,62.47
2022-09-10T23:49:13.247Z,63.37
2022-09-10T23:51:40.754Z,60.94
2022-09-10T23:54:10.120Z,60.66
2022-09-10T23:56:37.854Z,61.46
2022-09-10T23:59:05.122Z,62.91
